Time;durP1;ratioP1;P1;durP2;ratioP2;P2;SDS_P1;SDS_P2;PMS_P1;PMS_P2;Temp;Humidity;BMP_temperature;BMP_pressure;BME280_temperature;BME280_humidity;BME280_pressure;Samples;Min_cycle;Max_cycle;Signal;HPM_P1;HPM_P2
2023/07/04 00:01:32;;;;;;;11.20;6.50;;;;;;;18.90;73.40;98749.63;5093252;28;20020;-45
2023/07/04 00:03:58;;;;;;;44.53;34.30;;;;;;;19.16;73.16;98744.53;5091906;28;20026;-45
2023/07/04 00:06:29;;;;;;;126.30;115.57;;;;;;;19.33;72.22;98753.16;5091789;28;20489;-45
2023/07/04 00:08:55;;;;;;;56.35;51.25;;;;;;;19.48;70.68;98746.34;5093156;28;20031;-45
2023/07/04 00:11:21;;;;;;;28.05;25.20;;;;;;;19.51;70.27;98735.97;5091691;28;20038;-45
2023/07/04 00:13:51;;;;;;;17.58;10.88;;;;;;;19.52;69.67;98737.56;5093015;28;20054;-45
2023/07/04 00:16:18;;;;;;;17.98;11.43;;;;;;;19.48;69.10;98739.16;5091611;28;20402;-45
2023/07/04 00:18:44;;;;;;;6.82;4.82;;;;;;;19.50;69.02;98738.91;5091575;28;20024;-45
2023/07/04 00:21:14;;;;;;;33.53;30.38;;;;;;;19.45;68.72;98739.66;5074615;28;20111;-45
2023/07/04 00:23:45;;;;;;;12.10;8.93;;;;;;;19.39;68.67;98738.00;5092748;28;20023;-45
2023/07/04 00:26:12;;;;;;;5.70;2.75;;;;;;;19.30;68.63;98729.72;5093010;28;20417;-45
2023/07/04 00:28:38;;;;;;;8.77;2.58;;;;;;;19.13;68.68;98739.69;5092971;28;20091;-45
2023/07/04 00:31:06;;;;;;;4.97;2.10;;;;;;;18.88;69.47;98729.69;5092313;28;20031;-45
2023/07/04 00:33:33;;;;;;;9.35;3.45;;;;;;;18.52;70.87;98726.66;5091371;28;20085;-45
2023/07/04 00:36:04;;;;;;;6.90;4.38;;;;;;;18.00;73.55;98737.78;5092714;28;20099;-45
2023/07/04 00:38:34;;;;;;;10.70;3.63;;;;;;;17.69;76.32;98732.84;5091267;28;20490;-45
2023/07/04 00:41:02;;;;;;;9.15;3.25;;;;;;;17.43;78.83;98733.56;5092452;28;20111;-45
2023/07/04 00:44:11;;;;;;;7.40;3.13;;;;;;;17.13;81.40;98742.66;5091449;28;20020;-45
2023/07/04 00:46:51;;;;;;;6.75;3.15;;;;;;;16.82;84.38;98739.53;5091760;28;20106;-45
2023/07/04 00:49:41;;;;;;;11.27;5.13;;;;;;;16.64;86.64;98748.47;5092392;28;20036;-45
2023/07/04 00:52:17;;;;;;;11.40;7.50;;;;;;;16.65;87.64;98736.00;5092270;28;20054;-45
2023/07/04 00:54:52;;;;;;;14.73;11.90;;;;;;;16.84;88.44;98733.97;5092336;28;20023;-45
2023/07/04 00:57:25;;;;;;;8.63;3.83;;;;;;;16.93;88.29;98738.63;5092473;28;20119;-45
2023/07/04 00:59:58;;;;;;;11.45;3.80;;;;;;;16.93;87.32;98735.97;5092164;28;20028;-45
2023/07/04 01:02:29;;;;;;;6.63;2.83;;;;;;;16.93;87.47;98749.25;5092157;28;20397;-45
2023/07/04 01:04:56;;;;;;;4.55;2.60;;;;;;;16.94;87.61;98748.22;5092161;28;20084;-45
2023/07/04 01:07:54;;;;;;;12.38;3.38;;;;;;;16.93;86.84;98748.44;5090773;28;20035;-45
2023/07/04 01:10:30;;;;;;;6.45;3.00;;;;;;;16.91;86.97;98746.03;5092099;28;20095;-45
2023/07/04 01:12:56;;;;;;;7.78;3.30;;;;;;;16.93;87.19;98741.28;5091942;28;20036;-45
2023/07/04 01:15:23;;;;;;;5.85;3.13;;;;;;;16.88;87.37;98743.88;5092000;28;20027;-45
2023/07/04 01:17:53;;;;;;;8.13;3.45;;;;;;;16.91;87.83;98740.72;5091957;28;20027;-45
2023/07/04 01:20:19;;;;;;;7.28;3.17;;;;;;;17.17;88.16;98738.47;5074103;28;20069;-45
2023/07/04 01:22:47;;;;;;;6.13;2.85;;;;;;;17.43;87.74;98738.88;5090703;28;20153;-45
2023/07/04 01:25:26;;;;;;;5.95;2.92;;;;;;;17.61;85.75;98741.25;5091861;28;20062;-45
2023/07/04 01:27:59;;;;;;;9.98;3.10;;;;;;;17.84;86.17;98744.75;5091902;28;20158;-45
2023/07/04 01:30:28;;;;;;;11.55;3.25;;;;;;;18.25;86.31;98738.09;5091876;28;20024;-45
2023/07/04 01:32:55;;;;;;;5.63;2.47;;;;;;;18.64;85.27;98737.13;5091571;28;20043;-45
2023/07/04 01:35:25;;;;;;;7.38;2.92;;;;;;;18.82;84.02;98734.13;5092041;28;20454;-45
2023/07/04 01:37:51;;;;;;;8.90;3.45;;;;;;;19.10;82.88;98738.34;5091779;28;20500;-45
2023/07/04 01:40:16;;;;;;;11.35;2.70;;;;;;;19.00;81.81;98740.94;5090362;28;20110;-45
2023/07/04 01:42:42;;;;;;;13.23;2.80;;;;;;;19.17;81.49;98743.44;5090412;28;20107;-45
2023/07/04 01:45:08;;;;;;;5.43;2.40;;;;;;;19.42;80.49;98732.19;5091657;28;20071;-45
2023/07/04 01:47:36;;;;;;;3.72;2.38;;;;;;;19.45;79.02;98737.00;5091728;28;20401;-45
2023/07/04 01:50:03;;;;;;;4.25;2.25;;;;;;;19.35;78.25;98727.06;5092204;28;20363;-45
2023/07/04 01:52:29;;;;;;;6.28;2.65;;;;;;;19.22;77.68;98732.84;5090337;28;20028;-45
2023/07/04 01:54:56;;;;;;;6.88;4.50;;;;;;;19.04;76.74;98730.59;5091559;28;20180;-45
2023/07/04 01:57:22;;;;;;;5.78;2.47;;;;;;;18.72;76.00;98734.03;5092012;28;20038;-45
2023/07/04 01:59:48;;;;;;;6.95;2.53;;;;;;;18.47;76.81;98732.72;5095480;28;20016;-45
2023/07/04 02:02:14;;;;;;;4.20;2.40;;;;;;;18.31;77.28;98729.13;5094537;28;20599;-45
2023/07/04 02:04:40;;;;;;;7.35;2.70;;;;;;;18.20;77.44;98727.38;5095513;28;20043;-44
2023/07/04 02:07:06;;;;;;;5.70;2.53;;;;;;;18.06;77.96;98720.84;5094139;28;20016;-44
2023/07/04 02:09:32;;;;;;;7.00;2.55;;;;;;;18.00;78.21;98721.84;5095386;28;20503;-45
2023/07/04 02:11:58;;;;;;;5.72;2.67;;;;;;;17.99;78.49;98726.38;5093992;28;20039;-45
2023/07/04 02:14:24;;;;;;;7.03;2.70;;;;;;;18.04;78.49;98721.09;5093985;28;20039;-45
2023/07/04 02:16:51;;;;;;;4.25;2.05;;;;;;;18.05;77.69;98711.25;5095217;28;20107;-45
2023/07/04 02:19:17;;;;;;;9.82;3.13;;;;;;;18.05;77.88;98713.91;5095152;28;20047;-45
2023/07/04 02:21:42;;;;;;;7.68;2.38;;;;;;;18.03;77.37;98714.19;5095171;28;20020;-45
2023/07/04 02:24:08;;;;;;;7.65;3.13;;;;;;;17.99;77.21;98718.41;5093750;28;20124;-45
2023/07/04 02:26:34;;;;;;;7.85;3.17;;;;;;;17.90;77.15;98723.31;5093773;28;20047;-45
2023/07/04 02:29:00;;;;;;;5.15;3.03;;;;;;;17.67;76.97;98727.00;5094000;28;20085;-45
2023/07/04 02:31:26;;;;;;;5.40;2.85;;;;;;;17.39;77.67;98716.53;5093342;28;20096;-45
2023/07/04 02:33:52;;;;;;;7.50;3.67;;;;;;;17.19;78.85;98715.19;5076840;28;20020;-45
2023/07/04 02:36:19;;;;;;;4.50;2.78;;;;;;;17.07;79.49;98719.78;5093535;28;20024;-45
2023/07/04 02:38:45;;;;;;;9.85;2.75;;;;;;;16.96;80.25;98713.47;5094683;28;20069;-45
2023/07/04 02:41:11;;;;;;;5.90;2.80;;;;;;;16.85;80.88;98714.38;5093498;28;20517;-45
2023/07/04 02:43:37;;;;;;;8.35;3.42;;;;;;;16.80;81.51;98719.56;5093540;28;20024;-45
2023/07/04 02:46:05;;;;;;;5.65;2.45;;;;;;;16.78;81.62;98723.25;5093358;28;20509;-45
2023/07/04 02:48:34;;;;;;;7.38;2.90;;;;;;;16.66;81.79;98721.69;5093323;28;20024;-45
2023/07/04 02:51:00;;;;;;;4.47;2.50;;;;;;;16.63;82.28;98711.59;5093239;28;20032;-45
2023/07/04 02:53:26;;;;;;;11.45;3.60;;;;;;;16.62;82.26;98715.28;5094602;28;20036;-45
2023/07/04 02:55:53;;;;;;;7.20;3.30;;;;;;;16.55;82.53;98718.88;5094503;28;20028;-45
2023/07/04 02:58:20;;;;;;;14.63;4.78;;;;;;;16.52;82.54;98719.38;5093125;28;20059;-44
2023/07/04 03:00:50;;;;;;;11.38;6.85;;;;;;;16.69;83.20;98724.69;5092963;28;20020;-45
2023/07/04 03:03:17;;;;;;;9.80;6.72;;;;;;;17.12;83.12;98710.06;5093045;28;20062;-45
2023/07/04 03:05:44;;;;;;;9.95;4.80;;;;;;;17.49;81.81;98704.19;5094347;28;20028;-45
2023/07/04 03:08:10;;;;;;;10.73;4.88;;;;;;;17.63;80.15;98706.50;5076041;28;20028;-45
2023/07/04 03:10:35;;;;;;;3.60;3.17;;;;;;;17.51;78.99;98706.63;5092911;28;20413;-45
2023/07/04 03:13:01;;;;;;;7.55;3.30;;;;;;;17.25;78.67;98702.81;5094219;28;20524;-45
2023/07/04 03:15:27;;;;;;;5.18;2.97;;;;;;;17.02;79.29;98709.06;5092823;28;20509;-45
2023/07/04 03:17:53;;;;;;;7.63;2.92;;;;;;;16.85;79.80;98707.22;5092760;28;20063;-45
2023/07/04 03:20:18;;;;;;;5.53;2.30;;;;;;;16.76;80.28;98711.28;5093987;28;20446;-45
2023/07/04 03:22:45;;;;;;;6.80;2.63;;;;;;;16.66;80.83;98714.59;5094024;28;20062;-45
2023/07/04 03:25:11;;;;;;;6.72;2.78;;;;;;;16.51;81.17;98712.44;5093867;28;20051;-45
2023/07/04 03:27:39;;;;;;;8.38;2.85;;;;;;;16.40;81.82;98710.69;5092554;28;20042;-45
2023/07/04 03:30:08;;;;;;;6.63;2.45;;;;;;;16.38;82.55;98710.91;5092710;28;20020;-45
2023/07/04 03:32:34;;;;;;;8.95;3.15;;;;;;;16.38;82.79;98718.84;5092274;28;20051;-45
2023/07/04 03:35:02;;;;;;;6.63;3.05;;;;;;;16.33;82.65;98715.31;5094036;28;20024;-44
2023/07/04 03:37:30;;;;;;;7.22;3.22;;;;;;;16.24;82.96;98722.84;5093686;28;20035;-45
2023/07/04 03:39:57;;;;;;;11.52;2.55;;;;;;;16.18;83.65;98723.78;5092239;28;20025;-45
2023/07/04 03:42:24;;;;;;;8.75;3.30;;;;;;;16.17;84.05;98722.94;5092278;28;20020;-45
2023/07/04 03:44:50;;;;;;;7.53;3.25;;;;;;;16.18;84.26;98726.44;5093554;28;20013;-45
2023/07/04 03:47:16;;;;;;;8.88;3.45;;;;;;;16.14;84.47;98722.66;5092105;28;20035;-45
2023/07/04 03:49:42;;;;;;;8.98;2.67;;;;;;;16.15;84.29;98727.69;5075299;28;20028;-44
2023/07/04 03:52:07;;;;;;;7.53;3.10;;;;;;;16.24;84.24;98729.94;5093379;28;20024;-45
2023/07/04 03:54:33;;;;;;;8.35;3.30;;;;;;;16.39;84.38;98730.25;5093382;28;20519;-44
2023/07/04 03:56:59;;;;;;;19.55;3.85;;;;;;;16.63;84.18;98730.94;5093288;28;20402;-45
2023/07/04 03:59:25;;;;;;;14.35;3.40;;;;;;;17.08;84.06;98724.00;5093211;28;20024;-45
2023/07/04 04:01:50;;;;;;;10.23;3.60;;;;;;;17.73;82.79;98723.34;5093181;28;20043;-45
2023/07/04 04:04:16;;;;;;;9.95;4.22;;;;;;;18.30;80.40;98722.19;5093492;28;20393;-45
2023/07/04 04:06:42;;;;;;;12.85;6.53;;;;;;;18.56;77.65;98714.47;5091872;28;20024;-45
2023/07/04 04:09:07;;;;;;;14.85;10.95;;;;;;;18.61;75.94;98719.81;5091742;28;20020;-45
2023/07/04 04:11:33;;;;;;;9.93;7.20;;;;;;;18.61;74.18;98719.03;5091711;28;20428;-45
2023/07/04 04:13:59;;;;;;;27.83;18.60;;;;;;;18.35;73.45;98716.09;5092983;28;20048;-45
2023/07/04 04:16:25;;;;;;;29.05;14.32;;;;;;;18.25;75.09;98716.00;5092878;28;20038;-45
2023/07/04 04:18:51;;;;;;;17.67;7.97;;;;;;;18.67;75.50;98707.38;5091519;28;20490;-45
2023/07/04 04:21:17;;;;;;;15.98;6.28;;;;;;;19.16;74.30;98723.25;5092485;28;20027;-45
2023/07/04 04:23:43;;;;;;;17.08;6.68;;;;;;;19.76;72.61;98721.22;5092805;28;20401;-45
2023/07/04 04:26:09;;;;;;;26.75;6.28;;;;;;;20.14;70.22;98732.53;5091475;28;20460;-45
2023/07/04 04:28:34;;;;;;;23.92;7.93;;;;;;;20.43;68.98;98727.56;5092723;28;20028;-45
2023/07/04 04:31:00;;;;;;;15.60;6.38;;;;;;;21.13;66.45;98727.09;5092441;28;20034;-45
2023/07/04 04:33:26;;;;;;;20.40;6.13;;;;;;;21.45;64.20;98724.16;5091734;28;20508;-45
2023/07/04 04:35:51;;;;;;;13.98;4.88;;;;;;;21.31;63.67;98723.88;5091263;28;20060;-45
2023/07/04 04:38:17;;;;;;;12.13;5.05;;;;;;;21.25;63.92;98724.97;5092841;28;20050;-45
2023/07/04 04:40:43;;;;;;;10.05;4.45;;;;;;;21.27;63.28;98728.16;5091185;28;20402;-45
2023/07/04 04:43:09;;;;;;;15.18;4.28;;;;;;;21.42;63.10;98732.66;5092496;28;20024;-45
2023/07/04 04:45:36;;;;;;;16.02;3.72;;;;;;;21.22;61.47;98730.03;5091374;28;20020;-45
2023/07/04 04:48:06;;;;;;;6.03;2.60;;;;;;;20.62;62.21;98727.09;5092508;28;20694;-45
2023/07/04 04:50:32;;;;;;;8.57;3.08;;;;;;;20.50;63.61;98730.78;5092437;28;20460;-45
2023/07/04 04:52:59;;;;;;;11.38;3.88;;;;;;;21.31;62.60;98737.22;5092362;28;20055;-45
2023/07/04 04:55:25;;;;;;;13.82;3.58;;;;;;;22.58;59.30;98723.66;5092329;28;20031;-45
2023/07/04 04:57:52;;;;;;;7.68;3.42;;;;;;;24.00;55.44;98727.16;5090923;28;20039;-45
2023/07/04 05:00:18;;;;;;;9.30;4.30;;;;;;;25.25;51.59;98723.19;5090859;28;20024;-45
2023/07/04 05:02:44;;;;;;;10.05;3.78;;;;;;;26.14;48.57;98718.50;5092186;28;20020;-45
2023/07/04 05:05:12;;;;;;;11.65;3.45;;;;;;;26.96;46.27;98716.63;5092119;28;20027;-46
2023/07/04 05:07:37;;;;;;;13.38;4.30;;;;;;;27.54;44.18;98718.38;5090784;28;20118;-45
2023/07/04 05:10:04;;;;;;;30.50;4.95;;;;;;;28.09;42.80;98711.72;5092096;28;20523;-46
2023/07/04 05:12:31;;;;;;;12.18;4.90;;;;;;;28.75;41.11;98716.97;5090736;28;20077;-46
2023/07/04 05:14:57;;;;;;;13.23;4.22;;;;;;;28.84;40.26;98722.38;5090727;28;20115;-45
2023/07/04 05:17:23;;;;;;;15.50;4.47;;;;;;;28.93;40.32;98716.97;5090662;28;20185;-46
2023/07/04 05:19:50;;;;;;;11.38;4.22;;;;;;;29.49;38.84;98706.94;5090568;28;20540;-46
2023/07/04 05:22:17;;;;;;;6.25;3.50;;;;;;;29.61;37.90;98707.03;5090584;28;20405;-45
2023/07/04 05:24:42;;;;;;;8.98;3.72;;;;;;;29.75;37.80;98712.25;5090659;28;20494;-46
2023/07/04 05:27:08;;;;;;;7.10;3.97;;;;;;;29.70;37.62;98709.72;5090840;28;20123;-46
2023/07/04 05:29:34;;;;;;;22.25;4.10;;;;;;;30.04;37.08;98708.75;5091832;28;20051;-46
2023/07/04 05:31:59;;;;;;;13.23;3.30;;;;;;;30.43;36.29;98712.13;5093107;28;20529;-46
2023/07/04 05:34:25;;;;;;;12.18;3.35;;;;;;;30.20;36.38;98700.81;5096102;28;20020;-46
2023/07/04 05:36:51;;;;;;;9.50;2.80;;;;;;;30.16;36.74;98705.28;5094772;28;20146;-46
2023/07/04 05:39:17;;;;;;;8.48;2.63;;;;;;;30.35;35.82;98706.78;5096009;28;20583;-46
2023/07/04 05:41:42;;;;;;;3.50;2.15;;;;;;;29.98;36.35;98710.06;5094609;28;20016;-46
2023/07/04 05:44:10;;;;;;;14.82;2.53;;;;;;;29.39;37.79;98712.72;5095883;28;20059;-46
2023/07/04 05:46:36;;;;;;;13.57;3.70;;;;;;;29.86;37.62;98712.66;5095840;28;20016;-45
2023/07/04 05:49:03;;;;;;;11.50;2.97;;;;;;;31.16;35.93;98713.50;5095826;28;20032;-46
2023/07/04 05:51:29;;;;;;;8.35;2.63;;;;;;;32.44;33.30;98715.94;5094420;28;20054;-46
2023/07/04 05:53:56;;;;;;;7.00;2.25;;;;;;;33.30;32.09;98711.22;5095740;28;20028;-46
2023/07/04 05:56:30;;;;;;;5.78;2.10;;;;;;;34.00;31.05;98708.56;5094362;28;20024;-46
2023/07/04 05:59:01;;;;;;;13.82;2.70;;;;;;;34.31;30.41;98706.94;5095622;28;20099;-46
2023/07/04 06:01:33;;;;;;;9.00;2.60;;;;;;;34.51;30.06;98709.63;5095602;28;20036;-46
2023/07/04 06:03:59;;;;;;;7.97;2.30;;;;;;;34.80;29.76;98708.25;5094255;28;20024;-46
2023/07/04 06:06:26;;;;;;;11.00;2.70;;;;;;;35.22;29.04;98706.69;5095464;28;20137;-46
2023/07/04 06:08:54;;;;;;;9.18;2.67;;;;;;;35.61;28.41;98713.53;5095365;28;20366;-46
2023/07/04 06:11:22;;;;;;;16.70;3.15;;;;;;;35.93;27.71;98707.75;5095423;28;20020;-46
2023/07/04 06:13:48;;;;;;;37.67;6.13;;;;;;;36.48;27.42;98707.28;5094059;28;20024;-46
2023/07/04 06:16:13;;;;;;;9.20;2.17;;;;;;;36.91;26.37;98707.00;5093993;28;20047;-46
2023/07/04 06:18:39;;;;;;;10.48;2.42;;;;;;;37.20;26.39;98704.53;5093920;28;20020;-46
2023/07/04 06:21:10;;;;;;;11.38;2.58;;;;;;;37.26;26.19;98711.22;5093916;28;20024;-46
2023/07/04 06:23:37;;;;;;;11.45;2.58;;;;;;;37.27;26.45;98707.31;5095197;28;20036;-46
2023/07/04 06:26:03;;;;;;;13.05;3.35;;;;;;;37.55;25.56;98704.81;5095387;28;20047;-46
2023/07/04 06:28:29;;;;;;;17.67;3.13;;;;;;;37.90;24.88;98708.16;5095085;28;20046;-46
2023/07/04 06:30:55;;;;;;;22.00;3.53;;;;;;;38.27;24.87;98713.44;5093460;28;20031;-47
2023/07/04 06:33:21;;;;;;;24.70;3.35;;;;;;;38.87;24.32;98714.78;5093730;28;20012;-46
2023/07/04 06:35:46;;;;;;;42.83;4.95;;;;;;;39.09;24.25;98715.63;5094837;28;20032;-46
2023/07/04 06:38:12;;;;;;;14.48;2.92;;;;;;;39.53;23.76;98716.44;5094909;28;20074;-46
2023/07/04 06:40:38;;;;;;;23.70;3.53;;;;;;;40.11;23.29;98708.84;5093448;28;20036;-46
2023/07/04 06:43:05;;;;;;;19.73;3.53;;;;;;;40.15;22.90;98715.13;5094258;28;20012;-47
2023/07/04 06:45:35;;;;;;;23.90;3.35;;;;;;;40.28;22.91;98704.44;5093355;28;20020;-47
2023/07/04 06:48:01;;;;;;;48.33;5.00;;;;;;;40.24;22.90;98709.19;5094776;28;20031;-46
2023/07/04 06:50:28;;;;;;;16.48;2.47;;;;;;;40.33;22.58;98707.59;5093318;28;20035;-47
2023/07/04 06:52:54;;;;;;;17.80;2.05;;;;;;;40.06;22.98;98704.53;5094633;28;20054;-47
2023/07/04 06:55:21;;;;;;;69.88;7.30;;;;;;;39.79;23.66;98695.19;5094543;28;20027;-47
2023/07/04 06:57:46;;;;;;;17.92;4.05;;;;;;;40.14;23.25;98705.28;5094507;28;20034;-47
2023/07/04 07:00:12;;;;;;;9.07;3.05;;;;;;;39.91;23.26;98703.03;5094323;28;20394;-47
2023/07/04 07:02:38;;;;;;;23.50;3.70;;;;;;;39.88;23.42;98704.59;5093110;28;20031;-47
2023/07/04 07:05:05;;;;;;;28.05;4.38;;;;;;;40.12;23.17;98710.41;5094281;28;20034;-47
2023/07/04 07:07:31;;;;;;;6.25;2.22;;;;;;;40.46;22.81;98712.63;5094564;28;20016;-46
2023/07/04 07:09:56;;;;;;;22.23;4.07;;;;;;;40.72;22.80;98708.56;5094533;28;20542;-46
2023/07/04 07:12:22;;;;;;;13.95;2.40;;;;;;;41.09;22.43;98704.38;5094186;28;20065;-46
2023/07/04 07:14:48;;;;;;;5.00;2.40;;;;;;;41.78;21.40;98715.63;5094265;28;20028;-47
2023/07/04 07:17:13;;;;;;;6.15;1.70;;;;;;;41.97;20.96;98709.47;5094170;28;20390;-47
2023/07/04 07:19:40;;;;;;;5.40;2.10;;;;;;;41.75;21.41;98714.44;5075885;28;20030;-46
2023/07/04 07:22:06;;;;;;;14.07;2.72;;;;;;;41.57;21.55;98709.06;5093979;28;20115;-47
2023/07/04 07:24:33;;;;;;;13.45;2.70;;;;;;;41.40;21.41;98710.06;5093998;28;20103;-47
2023/07/04 07:26:58;;;;;;;6.95;2.22;;;;;;;40.92;21.94;98719.84;5092698;28;20016;-46
2023/07/04 07:29:26;;;;;;;12.77;3.60;;;;;;;40.98;22.19;98712.72;5092590;28;20443;-47
2023/07/04 07:31:52;;;;;;;7.30;2.75;;;;;;;40.75;22.41;98713.28;5092287;28;20049;-47
2023/07/04 07:34:18;;;;;;;11.80;3.63;;;;;;;40.23;23.04;98713.13;5092538;28;20020;-47
2023/07/04 07:36:46;;;;;;;8.75;2.47;;;;;;;39.26;23.80;98711.34;5093733;28;20111;-46
2023/07/04 07:39:15;;;;;;;9.80;2.45;;;;;;;38.52;24.81;98721.00;5092329;28;20066;-46
2023/07/04 07:41:46;;;;;;;7.90;2.30;;;;;;;38.01;25.41;98722.69;5093668;28;20020;-46
2023/07/04 07:44:13;;;;;;;7.97;2.65;;;;;;;37.55;26.83;98714.94;5092393;28;20036;-47
2023/07/04 07:46:39;;;;;;;11.48;2.60;;;;;;;37.62;26.44;98720.50;5093476;28;20497;-46
2023/07/04 07:49:06;;;;;;;6.30;2.50;;;;;;;38.22;25.92;98711.09;5093532;28;20505;-46
2023/07/04 07:51:33;;;;;;;6.78;2.00;;;;;;;38.94;25.06;98706.59;5092078;28;20109;-47
2023/07/04 07:54:01;;;;;;;9.25;2.30;;;;;;;39.59;23.70;98708.59;5092130;28;20050;-47
2023/07/04 07:56:32;;;;;;;8.95;2.20;;;;;;;39.99;23.48;98706.53;5092586;28;20036;-46
2023/07/04 07:58:59;;;;;;;5.07;1.65;;;;;;;40.60;22.81;98693.28;5075334;28;20028;-46
2023/07/04 08:01:31;;;;;;;5.68;2.08;;;;;;;41.11;21.90;98694.53;5091976;28;20050;-47
2023/07/04 08:03:57;;;;;;;7.57;1.63;;;;;;;41.72;21.44;98694.00;5091978;28;20028;-47
2023/07/04 08:06:25;;;;;;;5.43;1.60;;;;;;;41.92;20.92;98687.88;5093162;28;20032;-46
2023/07/04 08:08:52;;;;;;;5.00;1.60;;;;;;;41.34;21.25;98697.91;5093161;28;20528;-46
2023/07/04 08:11:18;;;;;;;3.67;1.50;;;;;;;41.78;21.03;98690.81;5093274;28;20032;-47
2023/07/04 08:13:43;;;;;;;36.63;4.35;;;;;;;42.09;20.41;98688.88;5093080;28;20070;-47
2023/07/04 08:16:10;;;;;;;12.18;2.80;;;;;;;42.15;20.17;98692.72;5093281;28;20041;-47
2023/07/04 08:18:35;;;;;;;5.45;1.50;;;;;;;42.34;20.39;98699.59;5092984;28;20047;-47
2023/07/04 08:21:03;;;;;;;7.00;1.90;;;;;;;42.71;19.80;98689.63;5092766;28;20067;-46
2023/07/04 08:23:30;;;;;;;5.57;1.45;;;;;;;43.15;19.49;98695.28;5091569;28;20024;-47
2023/07/04 08:25:57;;;;;;;2.20;1.20;;;;;;;43.48;19.04;98687.97;5091511;28;20134;-47
2023/07/04 08:28:23;;;;;;;9.38;1.77;;;;;;;43.28;19.32;98685.19;5091423;28;20077;-47
2023/07/04 08:30:51;;;;;;;7.63;1.98;;;;;;;43.23;19.22;98682.88;5092715;28;20111;-47
2023/07/04 08:33:18;;;;;;;8.38;1.80;;;;;;;43.33;18.83;98690.25;5092445;28;20060;-47
2023/07/04 08:36:01;;;;;;;7.15;1.38;;;;;;;43.58;18.68;98677.94;5092660;28;20498;-46
2023/07/04 08:38:27;;;;;;;4.10;1.40;;;;;;;43.55;18.80;98685.09;5091310;28;20497;-47
2023/07/04 08:40:53;;;;;;;5.22;1.83;;;;;;;43.24;19.26;98692.72;5091245;28;20398;-49
2023/07/04 08:43:28;;;;;;;7.43;1.52;;;;;;;43.55;18.56;98689.81;5092517;28;20512;-49
2023/07/04 08:45:55;;;;;;;4.75;1.50;;;;;;;44.03;18.31;98681.00;5092537;28;20375;-49
2023/07/04 08:48:24;;;;;;;3.38;1.25;;;;;;;44.22;18.09;98684.19;5091298;28;20180;-49
2023/07/04 08:50:54;;;;;;;2.35;1.23;;;;;;;44.36;17.72;98680.34;5091176;28;20106;-49
2023/07/04 08:53:24;;;;;;;5.45;1.35;;;;;;;44.72;17.37;98674.78;5091029;28;20423;-50
2023/07/04 08:56:26;;;;;;;18.55;2.15;;;;;;;44.41;17.64;98677.84;5092345;28;20508;-50
2023/07/04 08:59:13;;;;;;;8.35;1.40;;;;;;;44.65;17.50;98675.75;5091026;28;20057;-50
2023/07/04 09:02:17;;;;;;;18.27;2.65;;;;;;;44.31;17.71;98672.53;5092246;28;20034;-50
2023/07/04 09:05:16;;;;;;;8.52;1.63;;;;;;;43.30;18.50;98671.72;5060345;28;20047;-50
2023/07/04 09:07:56;;;;;;;6.57;1.20;;;;;;;43.67;17.77;98662.38;5090650;28;20397;-50
2023/07/04 09:10:33;;;;;;;4.43;1.15;;;;;;;43.68;17.89;98661.16;5092187;28;20051;-50
2023/07/04 09:13:01;;;;;;;8.55;1.40;;;;;;;41.75;19.08;98658.53;5090818;28;20489;-49
2023/07/04 09:15:34;;;;;;;7.93;1.45;;;;;;;41.34;19.67;98662.09;5092025;28;20027;-49
2023/07/04 09:18:28;;;;;;;10.82;1.42;;;;;;;42.17;18.90;98661.97;5090806;28;20027;-49
2023/07/04 09:21:03;;;;;;;6.88;1.27;;;;;;;42.76;18.84;98660.75;5091987;28;20028;-50
2023/07/04 09:23:30;;;;;;;7.20;1.38;;;;;;;43.39;17.89;98655.38;5090685;28;20032;-49
2023/07/04 09:25:57;;;;;;;5.30;1.27;;;;;;;43.88;17.30;98639.03;5090663;28;20025;-49
2023/07/04 09:28:24;;;;;;;14.98;2.17;;;;;;;43.71;17.47;98648.50;5091938;28;20028;-49
2023/07/04 09:30:53;;;;;;;10.63;1.73;;;;;;;43.56;17.36;98652.69;5090648;28;20031;-49
2023/07/04 09:33:21;;;;;;;6.32;1.30;;;;;;;44.01;16.58;98638.38;5091643;28;20055;-49
2023/07/04 09:35:48;;;;;;;9.73;2.13;;;;;;;44.25;16.39;98650.94;5091754;28;20055;-49
2023/07/04 09:38:13;;;;;;;41.28;3.83;;;;;;;44.68;16.32;98651.94;5091850;28;20020;-50
2023/07/04 09:40:50;;;;;;;16.65;1.58;;;;;;;43.99;16.53;98652.66;5090423;28;20051;-50
2023/07/04 09:43:31;;;;;;;6.47;1.30;;;;;;;43.24;17.33;98659.56;5091844;28;20040;-49
2023/07/04 09:46:10;;;;;;;11.30;1.20;;;;;;;43.54;17.23;98655.88;5091950;28;20058;-49
2023/07/04 09:48:36;;;;;;;7.25;1.73;;;;;;;42.50;16.97;98652.06;5091759;28;20024;-49
2023/07/04 09:51:26;;;;;;;8.50;1.33;;;;;;;42.33;17.57;98659.38;5091713;28;20039;-49
2023/07/04 09:54:11;;;;;;;13.20;2.10;;;;;;;43.16;16.89;98664.44;5090478;28;20039;-49
2023/07/04 09:56:37;;;;;;;2.42;1.05;;;;;;;43.83;16.14;98653.38;5090300;28;20050;-50
2023/07/04 09:59:16;;;;;;;9.05;1.65;;;;;;;43.13;16.28;98659.00;5091592;28;20588;-49
2023/07/04 10:01:45;;;;;;;10.70;2.00;;;;;;;43.01;17.33;98663.16;5091649;28;20016;-49
2023/07/04 10:04:13;;;;;;;9.32;1.10;;;;;;;43.47;16.32;98654.03;5090271;28;20043;-49
2023/07/04 10:06:39;;;;;;;6.68;1.38;;;;;;;43.68;16.22;98649.31;5091824;28;20099;-48
2023/07/04 10:09:23;;;;;;;7.82;1.08;;;;;;;44.02;15.90;98653.78;5090277;28;20024;-50
2023/07/04 10:11:51;;;;;;;9.57;1.60;;;;;;;43.60;16.09;98654.19;5091596;28;20149;-49
2023/07/04 10:14:31;;;;;;;13.38;2.15;;;;;;;43.54;16.69;98655.13;5091441;28;20036;-49
2023/07/04 10:17:08;;;;;;;3.00;1.00;;;;;;;43.55;16.29;98651.94;5091525;28;20031;-50
2023/07/04 10:19:39;;;;;;;12.02;2.15;;;;;;;43.42;17.01;98664.81;5093702;28;20405;-49
2023/07/04 10:22:05;;;;;;;8.65;1.42;;;;;;;43.99;16.22;98651.84;5095272;28;20043;-49
2023/07/04 10:24:33;;;;;;;8.07;1.20;;;;;;;44.70;15.63;98648.75;5094006;28;20021;-50
2023/07/04 10:27:02;;;;;;;5.68;1.60;;;;;;;44.93;15.15;98651.34;5095367;28;20077;-49
2023/07/04 10:29:39;;;;;;;4.15;1.13;;;;;;;45.28;14.68;98650.88;5095091;28;20031;-49
2023/07/04 10:32:09;;;;;;;2.92;0.90;;;;;;;45.39;14.65;98646.59;5094792;28;20089;-49
2023/07/04 10:34:36;;;;;;;5.50;1.00;;;;;;;45.06;14.64;98640.34;5093683;28;20020;-49
2023/07/04 10:37:03;;;;;;;3.95;1.00;;;;;;;44.50;15.09;98644.06;5094981;28;20028;-49
2023/07/04 10:39:31;;;;;;;9.65;1.80;;;;;;;44.57;15.32;98635.56;5093480;28;20035;-49
2023/07/04 10:42:15;;;;;;;5.18;1.10;;;;;;;44.95;14.95;98631.53;5094891;28;20032;-50
2023/07/04 10:44:43;;;;;;;3.92;1.00;;;;;;;45.10;14.33;98629.16;5093559;28;20409;-49
2023/07/04 10:47:21;;;;;;;3.03;1.10;;;;;;;45.25;14.02;98630.31;5093463;28;20398;-50
2023/07/04 10:49:54;;;;;;;12.77;2.10;;;;;;;45.39;14.06;98632.75;5093485;28;20482;-49
2023/07/04 10:52:29;;;;;;;3.88;1.20;;;;;;;45.24;14.40;98631.56;5094935;28;20051;-50
2023/07/04 10:54:54;;;;;;;21.52;2.53;;;;;;;45.13;14.52;98631.06;5093353;28;20485;-49
2023/07/04 10:57:38;;;;;;;2.55;0.80;;;;;;;45.34;14.29;98627.75;5093202;28;20123;-50
2023/07/04 11:00:10;;;;;;;7.68;1.42;;;;;;;44.65;14.54;98627.88;5094449;28;20020;-49
2023/07/04 11:02:50;;;;;;;35.60;3.45;;;;;;;43.96;15.28;98625.06;5094522;28;20031;-49
2023/07/04 11:05:35;;;;;;;7.15;1.15;;;;;;;43.81;15.74;98625.38;5093133;28;20024;-49
2023/07/04 11:08:02;;;;;;;11.32;1.75;;;;;;;44.04;15.91;98621.69;5094434;28;20039;-49
2023/07/04 11:10:31;;;;;;;7.85;1.80;;;;;;;44.10;15.74;98618.47;5093013;28;20394;-49
2023/07/04 11:12:57;;;;;;;3.75;1.00;;;;;;;44.04;15.99;98621.69;5092978;28;20027;-49
2023/07/04 11:15:30;;;;;;;13.32;1.52;;;;;;;43.64;15.91;98620.94;5094214;28;20027;-49
2023/07/04 11:17:56;;;;;;;6.70;1.58;;;;;;;43.52;16.73;98611.31;5092967;28;20028;-49
2023/07/04 11:20:30;;;;;;;7.88;1.50;;;;;;;43.76;15.58;98609.28;5094014;28;20032;-49
2023/07/04 11:23:00;;;;;;;6.93;1.40;;;;;;;43.80;15.12;98609.97;5092864;28;20174;-49
2023/07/04 11:25:34;;;;;;;4.55;1.55;;;;;;;43.73;15.65;98606.56;5092663;28;20016;-49
2023/07/04 11:28:18;;;;;;;3.10;1.10;;;;;;;42.99;15.73;98605.56;5094020;28;20028;-49
2023/07/04 11:30:47;;;;;;;5.22;1.30;;;;;;;41.39;16.96;98610.09;5092487;28;20258;-49
2023/07/04 11:33:40;;;;;;;7.28;1.52;;;;;;;40.81;18.14;98604.34;5093549;28;20047;-49
2023/07/04 11:36:18;;;;;;;5.85;1.23;;;;;;;41.15;17.35;98605.59;5093686;28;20032;-49
2023/07/04 11:38:51;;;;;;;11.43;1.95;;;;;;;41.07;17.61;98599.38;5093802;28;20036;-49